createdAt,value
2023-01-12T07:33:02.979Z,7.70
2023-01-12T07:36:02.654Z,7.70
2023-01-12T07:38:31.549Z,7.60
2023-01-12T07:41:00.933Z,7.70
2023-01-12T07:43:28.585Z,7.70
2023-01-12T07:46:00.105Z,7.70
2023-01-12T07:48:27.639Z,7.70
2023-01-12T07:50:55.304Z,7.80
2023-01-12T07:53:22.543Z,7.80
2023-01-12T07:55:49.613Z,7.80
2023-01-12T07:58:18.019Z,7.90
2023-01-12T08:00:45.100Z,7.90
2023-01-12T08:03:14.158Z,7.90
2023-01-12T08:05:41.637Z,7.80
2023-01-12T08:08:09.431Z,7.80
2023-01-12T08:10:36.865Z,7.70
2023-01-12T08:13:04.057Z,7.70
2023-01-12T08:15:40.091Z,7.70
2023-01-12T08:18:20.873Z,7.70
2023-01-12T08:20:49.008Z,7.70
2023-01-12T08:23:28.140Z,7.70
2023-01-12T08:26:01.598Z,7.70
2023-01-12T08:28:38.460Z,7.60
2023-01-12T08:31:11.220Z,7.70
2023-01-12T08:33:38.931Z,7.70
2023-01-12T08:36:09.510Z,7.70
2023-01-12T08:38:37.170Z,7.70
2023-01-12T08:41:23.190Z,7.70
2023-01-12T08:44:02.433Z,7.70
2023-01-12T08:46:39.337Z,7.70
2023-01-12T08:49:11.584Z,7.80
2023-01-12T08:51:44.366Z,7.80
2023-01-12T08:54:13.933Z,7.80
2023-01-12T08:56:41.123Z,7.70
2023-01-12T08:59:09.887Z,7.70
2023-01-12T09:01:37.065Z,7.70
2023-01-12T09:04:05.768Z,7.80
2023-01-12T09:06:40.183Z,7.80
2023-01-12T09:09:11.068Z,7.80
2023-01-12T09:11:42.103Z,7.80
2023-01-12T09:14:11.173Z,7.80
2023-01-12T09:16:38.918Z,7.80
2023-01-12T09:19:06.540Z,7.80
2023-01-12T09:21:38.563Z,7.80
2023-01-12T09:24:06.351Z,7.80
2023-01-12T09:26:42.228Z,7.80
2023-01-12T09:29:11.824Z,7.80
2023-01-12T09:31:42.686Z,7.90
2023-01-12T09:34:10.426Z,7.80
2023-01-12T09:36:39.684Z,7.80
2023-01-12T09:39:12.689Z,7.80
2023-01-12T09:42:06.260Z,7.80
2023-01-12T09:44:58.516Z,7.80
2023-01-12T09:47:56.414Z,7.90
2023-01-12T09:50:49.222Z,7.90
2023-01-12T09:53:23.794Z,8.00
2023-01-12T09:56:08.969Z,8.00
2023-01-12T09:59:08.065Z,8.00
2023-01-12T10:01:38.630Z,8.10
2023-01-12T10:04:06.776Z,8.10
2023-01-12T10:06:36.056Z,8.00
2023-01-12T10:09:12.121Z,8.10
2023-01-12T10:12:06.261Z,8.20
2023-01-12T10:14:33.489Z,8.20
2023-01-12T10:17:27.902Z,8.20
2023-01-12T10:20:06.815Z,8.30
2023-01-12T10:23:02.602Z,8.40
2023-01-12T10:25:40.393Z,8.30
2023-01-12T10:28:23.565Z,8.40
2023-01-12T10:30:51.968Z,8.40
2023-01-12T10:33:28.588Z,8.40
2023-01-12T10:36:09.685Z,8.40
2023-01-12T10:38:40.612Z,8.40
2023-01-12T10:41:11.790Z,8.50
2023-01-12T10:43:42.403Z,8.50
2023-01-12T10:46:22.490Z,8.50
2023-01-12T10:48:53.077Z,8.60
2023-01-12T10:51:26.230Z,8.50
2023-01-12T10:54:11.024Z,8.50
2023-01-12T10:56:42.719Z,8.60
2023-01-12T10:59:12.750Z,8.60
2023-01-12T11:01:51.078Z,8.60
2023-01-12T11:04:29.578Z,8.60
2023-01-12T11:07:12.521Z,8.70
2023-01-12T11:09:42.713Z,8.70
2023-01-12T11:12:35.253Z,8.70
2023-01-12T11:15:17.267Z,8.70
2023-01-12T11:18:21.019Z,8.80
2023-01-12T11:20:50.850Z,8.80
2023-01-12T11:23:43.096Z,8.80
2023-01-12T11:26:24.074Z,8.70
2023-01-12T11:29:00.825Z,8.70
2023-01-12T11:31:39.687Z,8.70
2023-01-12T11:34:17.321Z,8.60
2023-01-12T11:36:51.764Z,8.60
2023-01-12T11:39:23.654Z,8.60
2023-01-12T11:42:15.672Z,8.60
2023-01-12T11:45:03.420Z,8.60
2023-01-12T11:47:59.887Z,8.60
2023-01-12T11:50:33.685Z,8.60
2023-01-12T11:53:05.049Z,8.60
2023-01-12T11:55:59.948Z,8.60
2023-01-12T11:58:37.300Z,8.70
2023-01-12T12:01:19.424Z,8.80
2023-01-12T12:03:55.616Z,8.80
2023-01-12T12:06:37.744Z,8.90
2023-01-12T12:09:20.086Z,9.00
2023-01-12T12:12:01.222Z,9.00
2023-01-12T12:14:46.395Z,9.10
2023-01-12T12:17:25.175Z,9.10
2023-01-12T12:20:13.215Z,9.00
2023-01-12T12:23:10.802Z,9.10
2023-01-12T12:25:56.652Z,9.00
2023-01-12T12:28:40.797Z,9.00
2023-01-12T12:31:55.882Z,8.90
2023-01-12T12:34:34.702Z,8.90
2023-01-12T12:37:20.622Z,9.00
2023-01-12T12:40:22.416Z,9.00
2023-01-12T12:43:32.727Z,8.90
2023-01-12T12:46:13.287Z,8.90
2023-01-12T12:49:05.161Z,8.90
2023-01-12T12:51:34.999Z,8.90
2023-01-12T12:54:07.079Z,8.90
2023-01-12T12:56:37.339Z,8.90
2023-01-12T12:59:05.059Z,8.90
2023-01-12T13:01:32.211Z,8.90
2023-01-12T13:04:02.011Z,8.90
2023-01-12T13:06:45.259Z,8.80
2023-01-12T13:09:12.247Z,8.80
2023-01-12T13:11:59.744Z,8.70
2023-01-12T13:14:39.255Z,8.70
2023-01-12T13:17:21.609Z,8.70
2023-01-12T13:19:53.374Z,8.70
2023-01-12T13:22:32.961Z,8.70
2023-01-12T13:25:23.808Z,8.70
2023-01-12T13:28:00.478Z,8.70
2023-01-12T13:30:30.451Z,8.70
2023-01-12T13:33:16.127Z,8.70
2023-01-12T13:35:46.726Z,8.70
2023-01-12T13:38:44.853Z,8.60
2023-01-12T13:41:14.861Z,8.70
2023-01-12T13:43:56.686Z,8.60
2023-01-12T13:46:56.626Z,8.60
2023-01-12T13:49:34.496Z,8.60
2023-01-12T13:52:29.392Z,8.60
2023-01-12T13:54:57.266Z,8.60
2023-01-12T13:57:31.214Z,8.60
2023-01-12T14:00:09.615Z,8.60
2023-01-12T14:02:38.279Z,8.60
2023-01-12T14:05:46.288Z,8.70
2023-01-12T14:08:51.738Z,8.70
2023-01-12T14:11:40.882Z,8.60
2023-01-12T14:15:02.573Z,8.70
2023-01-12T14:17:49.818Z,8.60
2023-01-12T14:20:29.067Z,8.60
2023-01-12T14:23:16.273Z,8.70
2023-01-12T14:25:44.369Z,8.70
2023-01-12T14:28:23.494Z,8.70
2023-01-12T14:30:54.806Z,8.70
2023-01-12T14:33:28.931Z,8.70
2023-01-12T14:36:03.436Z,8.70
2023-01-12T14:38:32.387Z,8.70
2023-01-12T14:41:30.968Z,8.70
2023-01-12T14:44:17.016Z,8.70
2023-01-12T14:46:53.141Z,8.70
2023-01-12T14:49:32.590Z,8.70
2023-01-12T14:52:02.644Z,8.70
2023-01-12T14:54:33.262Z,8.70
2023-01-12T14:57:16.008Z,8.60
2023-01-12T14:59:46.875Z,8.70
2023-01-12T15:02:17.624Z,8.70
2023-01-12T15:05:06.374Z,8.70
2023-01-12T15:07:53.749Z,8.70
2023-01-12T15:10:20.813Z,8.70
2023-01-12T15:12:54.323Z,8.70
2023-01-12T15:15:50.748Z,8.70
2023-01-12T15:18:36.227Z,8.80
2023-01-12T15:21:22.960Z,8.80
2023-01-12T15:24:08.928Z,8.90
2023-01-12T15:26:36.102Z,8.60
2023-01-12T15:29:03.379Z,8.80
2023-01-12T15:31:35.137Z,8.80
2023-01-12T15:34:03.945Z,8.80
2023-01-12T15:36:31.247Z,8.80
2023-01-12T15:38:58.375Z,8.80
2023-01-12T15:41:48.948Z,8.90
2023-01-12T15:44:19.047Z,8.90
2023-01-12T15:46:46.423Z,8.90
2023-01-12T15:49:14.603Z,8.90
2023-01-12T15:51:47.114Z,8.90
2023-01-12T15:54:18.126Z,8.90
2023-01-12T15:56:46.161Z,8.90
2023-01-12T15:59:13.374Z,8.90
2023-01-12T16:01:50.576Z,8.90
2023-01-12T16:04:42.194Z,8.90
2023-01-12T16:07:09.915Z,9.00
2023-01-12T16:09:37.279Z,9.00
2023-01-12T16:12:04.813Z,9.10
2023-01-12T16:14:31.955Z,9.00
2023-01-12T16:16:59.061Z,9.10
2023-01-12T16:19:26.434Z,9.10
2023-01-12T16:21:55.247Z,9.10
2023-01-12T16:24:26.592Z,9.10
2023-01-12T16:26:53.933Z,9.10
2023-01-12T16:29:22.170Z,9.10
2023-01-12T16:31:49.633Z,9.10
2023-01-12T16:34:18.411Z,9.10
2023-01-12T16:36:45.556Z,9.10
2023-01-12T16:39:13.308Z,9.10
2023-01-12T16:41:40.430Z,9.10
2023-01-12T16:44:08.550Z,9.10
2023-01-12T16:46:36.098Z,9.10
2023-01-12T16:49:04.484Z,9.10
2023-01-12T16:51:34.606Z,9.10
2023-01-12T16:54:02.954Z,9.10
2023-01-12T16:56:30.769Z,9.10
2023-01-12T16:58:58.547Z,9.20
2023-01-12T17:01:26.326Z,9.20
2023-01-12T17:03:57.874Z,9.10
2023-01-12T17:06:28.123Z,9.20
2023-01-12T17:08:55.857Z,9.10
2023-01-12T17:11:24.472Z,9.10
2023-01-12T17:13:54.403Z,9.10
2023-01-12T17:16:24.297Z,9.10
2023-01-12T17:18:52.678Z,9.10
2023-01-12T17:21:20.784Z,9.10
2023-01-12T17:23:48.408Z,9.10
2023-01-12T17:26:18.495Z,9.10
2023-01-12T17:28:47.436Z,9.10
2023-01-12T17:31:19.361Z,9.10
2023-01-12T17:33:46.771Z,9.10
2023-01-12T17:36:14.583Z,9.10
2023-01-12T17:38:41.811Z,9.10
2023-01-12T17:41:33.624Z,9.10
2023-01-12T17:44:03.612Z,9.00
2023-01-12T17:46:32.238Z,9.00
2023-01-12T17:49:01.689Z,9.00
2023-01-12T17:51:29.284Z,9.00
2023-01-12T17:54:07.951Z,8.90
2023-01-12T17:56:35.700Z,8.90
2023-01-12T17:59:07.171Z,8.90
2023-01-12T18:01:36.828Z,8.90
2023-01-12T18:04:05.592Z,8.90
2023-01-12T18:06:32.806Z,8.80
2023-01-12T18:09:00.247Z,8.80
2023-01-12T18:11:29.154Z,8.70
2023-01-12T18:13:56.654Z,8.70
2023-01-12T18:16:24.482Z,8.70
2023-01-12T18:18:53.925Z,8.70
2023-01-12T18:21:24.521Z,8.70
2023-01-12T18:23:52.791Z,8.70
2023-01-12T18:26:26.696Z,8.70
2023-01-12T18:28:56.192Z,8.70
2023-01-12T18:31:28.794Z,8.80
2023-01-12T18:34:07.740Z,8.70
2023-01-12T18:36:39.023Z,8.70
2023-01-12T18:39:10.503Z,8.70
2023-01-12T18:41:56.471Z,8.80
2023-01-12T18:44:25.135Z,8.80
2023-01-12T18:47:11.114Z,8.80
2023-01-12T18:49:39.788Z,8.80
2023-01-12T18:52:29.215Z,8.80
2023-01-12T18:54:56.961Z,8.80
2023-01-12T18:57:27.581Z,8.80
2023-01-12T19:00:11.615Z,8.80
2023-01-12T19:02:40.413Z,8.80
2023-01-12T19:05:24.206Z,8.80
2023-01-12T19:07:51.562Z,8.70
2023-01-12T19:10:19.051Z,8.70
2023-01-12T19:12:46.212Z,8.60
2023-01-12T19:15:32.341Z,8.50
2023-01-12T19:18:08.479Z,8.40
2023-01-12T19:20:39.799Z,8.40
2023-01-12T19:23:26.957Z,8.30
2023-01-12T19:26:14.285Z,8.30
2023-01-12T19:28:41.821Z,8.30
2023-01-12T19:31:11.951Z,8.30
2023-01-12T19:33:39.961Z,8.30
2023-01-12T19:36:10.418Z,8.30
2023-01-12T19:38:38.167Z,8.30
2023-01-12T19:41:30.841Z,8.30
2023-01-12T19:44:01.019Z,8.30
2023-01-12T19:46:30.195Z,8.30
2023-01-12T19:48:57.731Z,8.30
2023-01-12T19:51:24.776Z,8.30
2023-01-12T19:53:51.855Z,8.30
2023-01-12T19:56:18.981Z,8.30
2023-01-12T19:58:46.059Z,8.30
2023-01-12T20:01:24.286Z,8.30
2023-01-12T20:03:51.692Z,8.30
2023-01-12T20:06:18.837Z,8.20
2023-01-12T20:08:45.971Z,8.20
2023-01-12T20:11:13.438Z,8.20
2023-01-12T20:13:40.543Z,8.20
2023-01-12T20:16:10.560Z,8.20
2023-01-12T20:18:38.366Z,8.30
2023-01-12T20:21:13.284Z,8.30
2023-01-12T20:23:40.383Z,8.40
2023-01-12T20:26:09.230Z,8.50
2023-01-12T20:28:36.485Z,8.50
2023-01-12T20:31:10.902Z,8.50
2023-01-12T20:33:38.523Z,8.50
2023-01-12T20:36:10.418Z,8.60
2023-01-12T20:38:37.606Z,8.60
2023-01-12T20:41:06.836Z,8.60
2023-01-12T20:43:34.484Z,8.60
2023-01-12T20:46:01.885Z,8.60
2023-01-12T20:48:29.447Z,8.70
2023-01-12T20:50:56.605Z,8.80
2023-01-12T20:53:26.920Z,8.80
2023-01-12T20:55:54.067Z,8.80
2023-01-12T20:58:21.148Z,8.80
2023-01-12T21:00:50.013Z,8.80
2023-01-12T21:03:17.841Z,8.80
2023-01-12T21:05:47.211Z,8.80
2023-01-12T21:08:16.643Z,8.80
2023-01-12T21:10:53.251Z,8.80
2023-01-12T21:13:21.941Z,8.80
2023-01-12T21:15:49.299Z,8.80
2023-01-12T21:18:16.433Z,8.70
2023-01-12T21:20:43.963Z,8.80
2023-01-12T21:23:11.589Z,8.80
2023-01-12T21:25:44.934Z,8.80
2023-01-12T21:28:12.606Z,8.80
2023-01-12T21:30:40.918Z,8.70
2023-01-12T21:33:08.189Z,8.70
2023-01-12T21:35:35.325Z,8.70
2023-01-12T21:38:02.937Z,8.80
2023-01-12T21:40:30.320Z,8.80
2023-01-12T21:43:09.843Z,8.80
2023-01-12T21:45:51.944Z,8.80
2023-01-12T21:48:22.110Z,8.80
2023-01-12T21:50:49.896Z,8.80
2023-01-12T21:53:21.633Z,8.80
2023-01-12T21:56:00.721Z,8.80
2023-01-12T21:58:30.414Z,8.70
2023-01-12T22:00:58.222Z,8.70
2023-01-12T22:03:29.350Z,8.70
2023-01-12T22:05:56.456Z,8.70
2023-01-12T22:08:23.625Z,8.70
2023-01-12T22:10:51.790Z,8.70
2023-01-12T22:13:18.871Z,8.80
2023-01-12T22:15:48.443Z,8.80
2023-01-12T22:18:15.575Z,8.80
2023-01-12T22:20:43.844Z,8.80
2023-01-12T22:23:13.893Z,8.80
2023-01-12T22:25:41.043Z,8.80
2023-01-12T22:28:08.142Z,8.80
2023-01-12T22:30:35.184Z,8.80
2023-01-12T22:33:02.800Z,8.80
2023-01-12T22:35:29.902Z,8.70
2023-01-12T22:37:58.046Z,8.60
2023-01-12T22:40:25.259Z,8.40
2023-01-12T22:43:10.716Z,8.40
2023-01-12T22:45:37.854Z,8.30
2023-01-12T22:48:05.556Z,8.30
2023-01-12T22:50:33.038Z,8.30
2023-01-12T22:53:00.182Z,8.40
2023-01-12T22:55:27.508Z,8.40
2023-01-12T22:57:54.579Z,8.40
2023-01-12T23:00:22.257Z,8.40
2023-01-12T23:03:02.013Z,8.50
2023-01-12T23:05:36.548Z,8.50
2023-01-12T23:08:06.905Z,8.60
2023-01-12T23:10:35.116Z,8.60
2023-01-12T23:13:11.812Z,8.70
2023-01-12T23:15:50.699Z,8.70
2023-01-12T23:18:21.162Z,8.70
2023-01-12T23:20:49.587Z,8.80
2023-01-12T23:23:21.253Z,8.80
2023-01-12T23:25:48.687Z,8.80
2023-01-12T23:28:16.346Z,8.80
2023-01-12T23:30:44.183Z,8.80
2023-01-12T23:33:11.594Z,8.80
2023-01-12T23:35:41.184Z,8.90
2023-01-12T23:38:15.556Z,8.90
2023-01-12T23:40:42.647Z,8.90
2023-01-12T23:43:09.698Z,9.00
2023-01-12T23:45:36.880Z,9.00
2023-01-12T23:48:07.809Z,9.10
2023-01-12T23:50:35.025Z,9.10
2023-01-12T23:53:02.239Z,9.10
2023-01-12T23:55:30.046Z,9.10
2023-01-12T23:57:57.130Z,9.10
